createdAt,value
2022-12-23T00:01:25.112Z,9.09
2022-12-23T00:03:53.183Z,9.08
2022-12-23T00:06:21.913Z,9.11
2022-12-23T00:08:49.924Z,9.12
2022-12-23T00:11:20.329Z,9.12
2022-12-23T00:14:05.899Z,9.13
2022-12-23T00:16:36.960Z,9.14
2022-12-23T00:19:05.047Z,9.14
2022-12-23T00:21:33.108Z,9.18
2022-12-23T00:24:00.991Z,9.16
2022-12-23T00:26:29.241Z,9.14
2022-12-23T00:28:58.795Z,9.15
2022-12-23T00:31:26.998Z,9.15
2022-12-23T00:33:56.272Z,9.13
2022-12-23T00:36:27.578Z,9.17
2022-12-23T00:39:14.093Z,9.13
2022-12-23T00:41:59.796Z,9.14
2022-12-23T00:44:27.765Z,9.11
2022-12-23T00:46:55.650Z,9.09
2022-12-23T00:49:42.101Z,9.13
2022-12-23T00:52:15.594Z,9.14
2022-12-23T00:54:43.607Z,9.13
2022-12-23T00:57:11.921Z,9.13
2022-12-23T00:59:39.839Z,9.13
2022-12-23T01:02:25.151Z,9.16
2022-12-23T01:05:12.203Z,9.17
2022-12-23T01:07:40.089Z,9.18
2022-12-23T01:10:09.548Z,9.19
2022-12-23T01:12:37.402Z,9.17
2022-12-23T01:15:05.925Z,9.18
2022-12-23T01:17:33.776Z,9.21
2022-12-23T01:20:03.090Z,9.21
2022-12-23T01:22:30.912Z,9.23
2022-12-23T01:24:58.796Z,9.23
2022-12-23T01:27:26.636Z,9.25
2022-12-23T01:29:54.528Z,9.24
2022-12-23T01:32:22.400Z,9.25
2022-12-23T01:34:50.231Z,9.27
2022-12-23T01:37:19.476Z,9.28
2022-12-23T01:39:47.393Z,9.27
2022-12-23T01:42:33.375Z,9.30
2022-12-23T01:45:02.616Z,9.30
2022-12-23T01:47:37.193Z,9.33
2022-12-23T01:50:09.816Z,9.34
2022-12-23T01:52:44.901Z,9.39
2022-12-23T01:55:15.562Z,9.42
2022-12-23T01:57:45.165Z,9.41
2022-12-23T02:00:30.843Z,9.41
2022-12-23T02:03:16.051Z,9.42
2022-12-23T02:05:45.906Z,9.43
2022-12-23T02:08:35.394Z,9.44
2022-12-23T02:11:21.518Z,9.45
2022-12-23T02:14:18.402Z,9.45
2022-12-23T02:16:56.250Z,9.48
2022-12-23T02:19:45.425Z,9.49
2022-12-23T02:22:36.274Z,9.48
2022-12-23T02:25:33.569Z,9.47
2022-12-23T02:28:21.348Z,9.48
2022-12-23T02:31:00.521Z,9.52
2022-12-23T02:33:40.340Z,9.55
2022-12-23T02:36:21.370Z,9.53
2022-12-23T02:39:00.601Z,9.53
2022-12-23T02:41:35.610Z,9.51
2022-12-23T02:44:13.136Z,9.50
2022-12-23T02:46:48.055Z,9.46
2022-12-23T02:49:21.537Z,9.48
2022-12-23T02:52:00.035Z,9.50
2022-12-23T02:54:31.765Z,9.54
2022-12-23T02:57:02.069Z,9.57
2022-12-23T02:59:34.305Z,9.60
2022-12-23T03:02:03.662Z,9.61
2022-12-23T03:04:31.568Z,9.63
2022-12-23T03:07:05.891Z,9.68
2022-12-23T03:09:46.884Z,9.75
2022-12-23T03:12:24.686Z,9.81
2022-12-23T03:15:12.183Z,9.86
2022-12-23T03:17:54.623Z,9.89
2022-12-23T03:20:27.961Z,9.90
2022-12-23T03:23:02.731Z,9.87
2022-12-23T03:25:34.943Z,9.87
2022-12-23T03:28:10.438Z,9.86
2022-12-23T03:30:42.056Z,9.87
2022-12-23T03:33:15.407Z,9.86
2022-12-23T03:35:49.506Z,9.84
2022-12-23T03:38:20.202Z,9.84
2022-12-23T03:40:52.723Z,9.82
2022-12-23T03:43:24.171Z,9.81
2022-12-23T03:45:57.188Z,9.81
2022-12-23T03:48:34.383Z,9.79
2022-12-23T03:51:07.975Z,9.81
2022-12-23T03:53:40.424Z,9.81
2022-12-23T03:56:11.503Z,9.81
2022-12-23T03:58:44.584Z,9.80
2022-12-23T04:01:20.185Z,9.79
2022-12-23T04:03:57.057Z,9.80
2022-12-23T04:06:28.261Z,9.80
2022-12-23T04:08:58.061Z,9.81
2022-12-23T04:11:26.282Z,9.81
2022-12-23T04:13:54.814Z,9.82
2022-12-23T04:16:22.982Z,9.81
2022-12-23T04:18:52.314Z,9.81
2022-12-23T04:21:20.131Z,9.83
2022-12-23T04:23:47.883Z,9.83
2022-12-23T04:26:15.838Z,9.87
2022-12-23T04:28:43.692Z,9.90
2022-12-23T04:31:11.518Z,9.92
2022-12-23T04:33:39.356Z,9.98
2022-12-23T04:36:08.788Z,10.05
2022-12-23T04:38:36.608Z,10.06
2022-12-23T04:41:04.509Z,10.07
2022-12-23T04:43:32.418Z,10.06
2022-12-23T04:46:00.219Z,10.08
2022-12-23T04:48:28.049Z,10.09
2022-12-23T04:50:55.858Z,10.10
2022-12-23T04:53:25.029Z,10.10
2022-12-23T04:55:53.023Z,10.12
2022-12-23T04:58:22.230Z,10.14
2022-12-23T05:00:50.146Z,10.15
2022-12-23T05:03:18.315Z,10.15
2022-12-23T05:05:46.192Z,10.16
2022-12-23T05:08:14.016Z,10.17
2022-12-23T05:10:43.167Z,10.15
2022-12-23T05:13:11.049Z,10.16
2022-12-23T05:15:38.924Z,10.15
2022-12-23T05:18:06.869Z,10.17
2022-12-23T05:20:34.622Z,10.15
2022-12-23T05:23:02.496Z,10.16
2022-12-23T05:25:30.355Z,10.15
2022-12-23T05:27:59.652Z,10.18
2022-12-23T05:30:27.441Z,10.19
2022-12-23T05:32:55.684Z,10.25
2022-12-23T05:35:24.515Z,10.39
2022-12-23T05:37:52.581Z,10.38
2022-12-23T05:40:24.057Z,10.39
2022-12-23T05:42:56.333Z,10.40
2022-12-23T05:45:25.710Z,10.40
2022-12-23T05:47:53.577Z,10.41
2022-12-23T05:50:21.500Z,10.41
2022-12-23T05:52:49.308Z,10.39
2022-12-23T05:55:17.138Z,10.40
2022-12-23T05:57:44.920Z,10.39
2022-12-23T06:00:13.688Z,10.38
2022-12-23T06:02:45.095Z,10.34
2022-12-23T06:05:15.671Z,10.33
2022-12-23T06:07:43.594Z,10.30
2022-12-23T06:10:12.493Z,10.31
2022-12-23T06:12:40.379Z,10.30
2022-12-23T06:15:09.203Z,10.28
2022-12-23T06:17:37.040Z,10.27
2022-12-23T06:20:07.729Z,10.25
2022-12-23T06:22:35.568Z,10.27
2022-12-23T06:25:03.544Z,10.25
2022-12-23T06:27:31.416Z,10.20
2022-12-23T06:29:59.311Z,10.19
2022-12-23T06:32:28.663Z,10.23
2022-12-23T06:34:58.289Z,10.20
2022-12-23T06:37:27.468Z,10.17
2022-12-23T06:39:55.396Z,10.20
2022-12-23T06:42:23.158Z,10.22
2022-12-23T06:44:53.724Z,10.20
2022-12-23T06:47:21.559Z,10.21
2022-12-23T06:49:49.389Z,10.20
2022-12-23T06:52:17.398Z,10.19
2022-12-23T06:54:46.553Z,10.19
2022-12-23T06:57:14.348Z,10.18
2022-12-23T06:59:42.180Z,10.21
2022-12-23T07:02:11.616Z,10.28
2022-12-23T07:04:39.701Z,10.29
2022-12-23T07:07:07.474Z,10.31
2022-12-23T07:09:35.367Z,10.31
2022-12-23T07:12:05.341Z,10.32
2022-12-23T07:14:33.204Z,10.30
2022-12-23T07:17:01.135Z,10.30
2022-12-23T07:19:28.946Z,10.31
2022-12-23T07:21:56.687Z,10.31
2022-12-23T07:24:24.533Z,10.30
2022-12-23T07:26:52.504Z,10.29
2022-12-23T07:29:21.826Z,10.30
2022-12-23T07:31:49.733Z,10.28
2022-12-23T07:34:17.569Z,10.25
2022-12-23T07:36:45.491Z,10.24
2022-12-23T07:39:13.282Z,10.28
2022-12-23T07:41:41.194Z,10.29
2022-12-23T07:44:09.688Z,10.29
2022-12-23T07:46:39.347Z,10.32
2022-12-23T07:49:07.535Z,10.32
2022-12-23T07:51:35.459Z,10.36
2022-12-23T07:54:03.366Z,10.39
2022-12-23T07:56:31.248Z,10.39
2022-12-23T07:58:59.050Z,10.38
2022-12-23T08:01:26.982Z,10.37
2022-12-23T08:03:56.327Z,10.38
2022-12-23T08:06:24.538Z,10.39
2022-12-23T08:08:52.347Z,10.40
2022-12-23T08:11:20.160Z,10.42
2022-12-23T08:13:49.270Z,10.46
2022-12-23T08:16:17.163Z,10.48
2022-12-23T08:18:45.482Z,10.52
2022-12-23T08:21:17.533Z,10.53
2022-12-23T08:23:47.035Z,10.57
2022-12-23T08:26:16.978Z,10.57
2022-12-23T08:28:45.715Z,10.59
2022-12-23T08:31:15.483Z,10.59
2022-12-23T08:33:45.287Z,10.61
2022-12-23T08:36:22.380Z,10.61
2022-12-23T08:38:51.569Z,10.62
2022-12-23T08:41:22.383Z,10.62
2022-12-23T08:43:50.243Z,10.64
2022-12-23T08:46:18.699Z,10.65
2022-12-23T08:48:49.360Z,10.66
2022-12-23T08:51:21.156Z,10.66
2022-12-23T08:53:51.509Z,10.68
2022-12-23T08:56:24.115Z,10.69
2022-12-23T08:58:53.831Z,10.68
2022-12-23T09:01:24.146Z,10.70
2022-12-23T09:03:52.569Z,10.72
2022-12-23T09:06:29.066Z,10.71
2022-12-23T09:08:58.520Z,10.73
2022-12-23T09:11:28.388Z,10.73
2022-12-23T09:13:57.254Z,10.71
2022-12-23T09:16:25.255Z,10.71
2022-12-23T09:18:53.104Z,10.72
2022-12-23T09:21:23.724Z,10.71
2022-12-23T09:23:52.140Z,10.73
2022-12-23T09:26:22.400Z,10.73
2022-12-23T09:28:50.256Z,10.73
2022-12-23T09:31:18.708Z,10.76
2022-12-23T09:33:49.180Z,10.78
2022-12-23T09:36:17.829Z,10.80
2022-12-23T09:38:48.120Z,10.80
2022-12-23T09:41:30.730Z,10.82
2022-12-23T09:44:15.730Z,10.83
2022-12-23T09:46:49.050Z,10.84
2022-12-23T09:49:18.815Z,10.84
2022-12-23T09:51:49.474Z,10.83
2022-12-23T09:54:22.224Z,10.79
2022-12-23T09:56:53.873Z,10.74
2022-12-23T09:59:37.642Z,10.68
2022-12-23T10:02:17.632Z,10.65
2022-12-23T10:04:58.111Z,10.61
2022-12-23T10:07:34.478Z,10.57
2022-12-23T10:10:14.649Z,10.57
2022-12-23T10:12:47.941Z,10.56
2022-12-23T10:15:22.464Z,10.57
2022-12-23T10:17:54.299Z,10.57
2022-12-23T10:20:34.320Z,10.57
2022-12-23T10:23:02.144Z,10.58
2022-12-23T10:25:38.557Z,10.60
2022-12-23T10:28:06.535Z,10.60
2022-12-23T10:31:05.954Z,10.62
2022-12-23T10:33:37.749Z,10.60
2022-12-23T10:36:10.637Z,10.62
2022-12-23T10:38:52.281Z,10.64
2022-12-23T10:41:31.469Z,10.65
2022-12-23T10:44:18.564Z,10.66
2022-12-23T10:46:54.259Z,10.69
2022-12-23T10:49:31.979Z,10.73
2022-12-23T10:52:04.808Z,10.75
2022-12-23T10:54:33.909Z,10.78
2022-12-23T10:57:04.819Z,10.80
2022-12-23T10:59:35.648Z,10.82
2022-12-23T11:02:18.246Z,10.84
2022-12-23T11:04:48.590Z,10.87
2022-12-23T11:07:44.046Z,10.89
2022-12-23T11:10:16.821Z,10.88
2022-12-23T11:12:48.384Z,10.88
2022-12-23T11:15:31.261Z,10.87
2022-12-23T11:18:05.315Z,10.90
2022-12-23T11:20:33.970Z,10.89
2022-12-23T11:23:03.868Z,10.88
2022-12-23T11:25:35.597Z,10.87
2022-12-23T11:28:06.599Z,10.86
2022-12-23T11:30:38.777Z,10.86
2022-12-23T11:33:07.162Z,10.85
2022-12-23T11:35:37.890Z,10.83
2022-12-23T11:38:05.786Z,10.82
2022-12-23T11:40:36.908Z,10.81
2022-12-23T11:43:14.234Z,10.81
2022-12-23T11:45:42.434Z,10.80
2022-12-23T11:48:28.970Z,10.78
2022-12-23T11:51:00.759Z,10.80
2022-12-23T11:53:28.997Z,10.80
2022-12-23T11:56:02.506Z,10.80
2022-12-23T11:58:36.496Z,10.80
2022-12-23T12:01:15.780Z,10.78
2022-12-23T12:03:48.517Z,10.76
2022-12-23T12:06:19.415Z,10.75
2022-12-23T12:08:50.413Z,10.75
2022-12-23T12:11:20.617Z,10.76
2022-12-23T12:13:53.548Z,10.76
2022-12-23T12:16:35.476Z,10.79
2022-12-23T12:19:08.721Z,10.79
2022-12-23T12:21:39.838Z,10.82
2022-12-23T12:24:19.290Z,10.83
2022-12-23T12:26:51.364Z,10.83
2022-12-23T12:29:26.478Z,10.84
2022-12-23T12:31:57.949Z,10.85
2022-12-23T12:34:34.721Z,10.89
2022-12-23T12:37:08.852Z,10.89
2022-12-23T12:39:42.313Z,10.91
2022-12-23T12:42:16.162Z,10.93
2022-12-23T12:44:56.962Z,10.94
2022-12-23T12:47:53.367Z,10.94
2022-12-23T12:50:24.375Z,11.00
2022-12-23T12:52:56.492Z,10.99
2022-12-23T12:55:29.441Z,11.00
2022-12-23T12:57:57.361Z,11.03
2022-12-23T13:00:26.731Z,11.07
2022-12-23T13:03:16.780Z,11.09
2022-12-23T13:06:00.867Z,11.12
2022-12-23T13:08:50.093Z,11.13
2022-12-23T13:11:28.378Z,11.17
2022-12-23T13:14:02.640Z,11.17
2022-12-23T13:16:42.002Z,11.19
2022-12-23T13:19:18.508Z,11.20
2022-12-23T13:21:52.778Z,11.22
2022-12-23T13:24:28.404Z,11.21
2022-12-23T13:27:03.603Z,11.23
2022-12-23T13:29:56.171Z,11.23
2022-12-23T13:32:42.163Z,11.27
2022-12-23T13:35:33.376Z,11.30
2022-12-23T13:38:12.735Z,11.30
2022-12-23T13:40:48.973Z,11.35
2022-12-23T13:43:21.558Z,11.36
2022-12-23T13:45:51.314Z,11.37
2022-12-23T13:48:34.657Z,11.41
2022-12-23T13:51:09.134Z,11.39
2022-12-23T13:53:50.862Z,11.45
2022-12-23T13:56:27.161Z,11.47
2022-12-23T13:58:55.573Z,11.46
2022-12-23T14:01:34.684Z,11.51
2022-12-23T14:04:32.416Z,11.55
2022-12-23T14:07:03.940Z,11.56
2022-12-23T14:09:35.912Z,11.55
2022-12-23T14:12:20.360Z,11.63
2022-12-23T14:15:04.049Z,11.64
2022-12-23T14:17:39.336Z,11.62
2022-12-23T14:20:22.500Z,11.65
2022-12-23T14:23:05.425Z,11.72
2022-12-23T14:26:01.486Z,11.71
2022-12-23T14:28:48.369Z,11.80
2022-12-23T14:31:31.371Z,11.78
2022-12-23T14:34:06.415Z,11.80
2022-12-23T14:36:34.427Z,11.82
2022-12-23T14:39:33.566Z,11.83
2022-12-23T14:42:06.452Z,11.86
2022-12-23T14:44:51.635Z,11.87
2022-12-23T14:47:35.731Z,11.90
2022-12-23T14:50:39.505Z,11.88
2022-12-23T14:53:22.873Z,11.86
2022-12-23T14:55:53.747Z,11.86
2022-12-23T14:58:33.650Z,11.87
2022-12-23T15:01:05.416Z,11.86
2022-12-23T15:03:41.136Z,11.90
2022-12-23T15:06:09.083Z,11.92
2022-12-23T15:08:40.446Z,11.93
2022-12-23T15:11:18.910Z,11.97
2022-12-23T15:13:47.094Z,11.94
2022-12-23T15:16:18.006Z,11.96
2022-12-23T15:18:56.083Z,11.97
2022-12-23T15:21:30.390Z,11.98
2022-12-23T15:23:58.262Z,11.93
2022-12-23T15:26:30.122Z,12.00
2022-12-23T15:28:59.026Z,12.02
2022-12-23T15:31:30.273Z,11.99
2022-12-23T15:34:03.729Z,12.03
2022-12-23T15:36:36.195Z,12.06
2022-12-23T15:39:10.336Z,12.06
2022-12-23T15:41:45.463Z,12.07
2022-12-23T15:44:20.184Z,12.08
2022-12-23T15:46:50.624Z,12.06
2022-12-23T15:49:20.438Z,12.05
2022-12-23T15:52:07.914Z,12.05
2022-12-23T15:54:45.234Z,12.03
2022-12-23T15:57:19.104Z,12.01
2022-12-23T15:59:47.345Z,11.98
2022-12-23T16:05:27.671Z,11.93
2022-12-23T16:08:11.819Z,11.94
2022-12-23T16:10:40.901Z,11.93
2022-12-23T16:13:19.157Z,11.91
2022-12-23T16:15:47.927Z,11.91
2022-12-23T16:18:23.358Z,11.87
2022-12-23T16:20:54.690Z,11.86
2022-12-23T16:23:23.855Z,11.84
2022-12-23T16:25:54.362Z,11.83
2022-12-23T16:28:29.274Z,11.80
2022-12-23T16:30:59.368Z,11.83
2022-12-23T16:33:36.054Z,11.97
2022-12-23T16:36:21.923Z,12.11
2022-12-23T16:38:52.252Z,12.26
2022-12-23T16:41:20.728Z,12.36
2022-12-23T16:43:52.780Z,12.40
2022-12-23T16:46:23.469Z,12.47
2022-12-23T16:48:55.424Z,12.49
2022-12-23T16:51:24.557Z,12.53
2022-12-23T16:53:55.204Z,12.75
2022-12-23T16:56:25.221Z,12.73
2022-12-23T16:58:54.690Z,12.75
2022-12-23T17:01:25.061Z,12.78
2022-12-23T17:03:53.727Z,12.98
2022-12-23T17:06:21.856Z,12.90
2022-12-23T17:08:50.508Z,12.87
2022-12-23T17:11:20.918Z,12.80
2022-12-23T17:13:48.970Z,12.77
2022-12-23T17:16:20.485Z,12.70
2022-12-23T17:18:49.409Z,12.78
2022-12-23T17:21:22.799Z,12.81
2022-12-23T17:23:52.129Z,12.83
2022-12-23T17:26:20.808Z,12.84
2022-12-23T17:28:48.868Z,12.83
2022-12-23T17:31:26.325Z,12.79
2022-12-23T17:33:55.380Z,12.90
2022-12-23T17:36:23.640Z,12.93
2022-12-23T17:38:51.710Z,12.90
2022-12-23T17:41:26.306Z,12.91
2022-12-23T17:43:54.354Z,12.87
2022-12-23T17:46:24.267Z,12.85
2022-12-23T17:48:52.958Z,12.94
2022-12-23T17:51:23.960Z,12.88
2022-12-23T17:53:57.787Z,12.86
2022-12-23T17:56:28.406Z,12.87
2022-12-23T17:58:56.419Z,12.89
2022-12-23T18:01:28.711Z,13.01
2022-12-23T18:03:57.975Z,13.04
2022-12-23T18:06:27.740Z,13.04
2022-12-23T18:08:57.000Z,13.05
2022-12-23T18:11:32.105Z,12.87
2022-12-23T18:14:00.282Z,12.74
2022-12-23T18:16:29.877Z,12.72
2022-12-23T18:18:58.449Z,12.66
2022-12-23T18:21:28.597Z,12.59
2022-12-23T18:24:00.501Z,12.53
2022-12-23T18:26:28.437Z,12.48
2022-12-23T18:28:56.488Z,12.41
2022-12-23T18:31:27.393Z,12.44
2022-12-23T18:33:57.008Z,12.38
2022-12-23T18:36:27.161Z,12.36
2022-12-23T18:38:56.542Z,12.29
2022-12-23T18:41:25.651Z,12.36
2022-12-23T18:43:53.865Z,12.35
2022-12-23T18:46:21.980Z,12.37
2022-12-23T18:48:51.524Z,12.34
2022-12-23T18:51:22.655Z,12.30
2022-12-23T18:53:50.928Z,12.30
2022-12-23T18:56:21.184Z,12.23
2022-12-23T18:58:49.465Z,12.19
2022-12-23T19:01:19.556Z,12.15
2022-12-23T19:03:48.211Z,12.09
2022-12-23T19:06:17.059Z,12.15
2022-12-23T19:08:46.633Z,12.17
2022-12-23T19:11:16.450Z,12.13
2022-12-23T19:13:45.116Z,12.07
2022-12-23T19:16:15.470Z,12.07
2022-12-23T19:18:44.433Z,12.13
2022-12-23T19:21:12.699Z,12.04
2022-12-23T19:23:41.912Z,12.03
2022-12-23T19:26:12.602Z,12.03
2022-12-23T19:28:41.430Z,12.01
2022-12-23T19:31:10.294Z,11.99
2022-12-23T19:33:38.622Z,12.02
2022-12-23T19:36:10.981Z,11.97
2022-12-23T19:38:39.177Z,11.92
2022-12-23T19:41:07.487Z,12.14
2022-12-23T19:43:37.766Z,12.14
2022-12-23T19:46:08.577Z,12.03
2022-12-23T19:48:37.157Z,11.97
2022-12-23T19:51:07.017Z,12.03
2022-12-23T19:53:35.663Z,11.98
2022-12-23T19:56:05.269Z,11.91
2022-12-23T19:58:34.544Z,11.85
2022-12-23T20:01:09.654Z,11.80
2022-12-23T20:03:38.339Z,11.82
2022-12-23T20:06:07.817Z,11.79
2022-12-23T20:08:36.472Z,11.77
2022-12-23T20:11:06.606Z,11.74
2022-12-23T20:13:34.613Z,11.73
2022-12-23T20:16:02.990Z,11.78
2022-12-23T20:18:32.476Z,11.71
2022-12-23T20:21:01.168Z,11.73
2022-12-23T20:23:30.163Z,11.66
2022-12-23T20:25:58.177Z,11.60
2022-12-23T20:28:26.382Z,11.56
2022-12-23T20:31:01.011Z,11.50
2022-12-23T20:33:29.045Z,11.45
2022-12-23T20:35:58.464Z,11.42
2022-12-23T20:38:26.602Z,11.40
2022-12-23T20:40:54.713Z,11.36
2022-12-23T20:43:22.770Z,11.34
2022-12-23T20:45:52.124Z,11.32
2022-12-23T20:48:21.757Z,11.28
2022-12-23T20:50:49.979Z,11.25
2022-12-23T20:53:19.410Z,11.23
2022-12-23T20:55:47.428Z,11.26
2022-12-23T20:58:32.999Z,11.26
2022-12-23T21:01:09.280Z,11.23
2022-12-23T21:03:37.838Z,11.24
2022-12-23T21:06:07.123Z,11.24
2022-12-23T21:08:38.086Z,11.24
2022-12-23T21:11:07.346Z,11.25
2022-12-23T21:13:36.940Z,11.42
2022-12-23T21:16:07.415Z,11.40
2022-12-23T21:18:35.977Z,11.35
2022-12-23T21:21:06.285Z,11.30
2022-12-23T21:23:39.473Z,11.29
2022-12-23T21:26:13.412Z,11.30
2022-12-23T21:28:43.216Z,11.30
2022-12-23T21:31:11.757Z,11.29
2022-12-23T21:33:41.579Z,11.38
2022-12-23T21:36:16.402Z,11.31
2022-12-23T21:38:50.326Z,11.32
2022-12-23T21:41:20.954Z,11.30
2022-12-23T21:43:49.588Z,11.27
2022-12-23T21:46:19.516Z,11.23
2022-12-23T21:48:47.948Z,11.21
2022-12-23T21:51:17.299Z,11.34
2022-12-23T21:53:46.669Z,11.25
2022-12-23T21:56:18.099Z,11.23
2022-12-23T21:58:46.381Z,11.21
2022-12-23T22:01:16.282Z,11.21
2022-12-23T22:03:45.351Z,11.25
2022-12-23T22:06:16.370Z,11.31
2022-12-23T22:08:44.807Z,11.32
2022-12-23T22:11:16.165Z,11.26
2022-12-23T22:13:44.312Z,11.30
2022-12-23T22:16:14.137Z,11.29
2022-12-23T22:18:42.902Z,11.24
2022-12-23T22:21:12.949Z,11.22
2022-12-23T22:23:41.059Z,11.24
2022-12-23T22:26:11.173Z,11.24
2022-12-23T22:28:40.893Z,11.20
2022-12-23T22:31:15.585Z,11.16
2022-12-23T22:33:43.406Z,11.15
2022-12-23T22:36:12.203Z,11.09
2022-12-23T22:38:40.323Z,11.06
2022-12-23T22:41:08.873Z,11.05
2022-12-23T22:43:36.716Z,11.08
2022-12-23T22:46:06.415Z,11.06
2022-12-23T22:48:34.471Z,11.02
2022-12-23T22:51:03.376Z,10.98
2022-12-23T22:53:31.697Z,10.98
2022-12-23T22:56:00.295Z,10.95
2022-12-23T22:58:29.521Z,10.94
2022-12-23T23:00:57.452Z,10.93
2022-12-23T23:03:27.350Z,10.90
2022-12-23T23:05:59.502Z,10.88
2022-12-23T23:08:27.984Z,10.87
2022-12-23T23:10:58.238Z,10.91
2022-12-23T23:13:27.723Z,10.88
2022-12-23T23:15:56.081Z,10.86
2022-12-23T23:18:24.637Z,10.82
2022-12-23T23:20:54.417Z,10.77
2022-12-23T23:23:22.659Z,10.77
2022-12-23T23:25:50.465Z,10.78
2022-12-23T23:28:18.313Z,10.77
2022-12-23T23:30:46.208Z,10.82
2022-12-23T23:33:14.158Z,10.81
2022-12-23T23:35:42.078Z,10.82
2022-12-23T23:38:11.322Z,10.80
2022-12-23T23:40:39.468Z,10.82
2022-12-23T23:43:07.352Z,10.82
2022-12-23T23:45:35.294Z,10.79
2022-12-23T23:48:03.113Z,10.82
2022-12-23T23:50:30.988Z,10.81
2022-12-23T23:52:58.857Z,10.78
2022-12-23T23:55:28.037Z,10.78
2022-12-23T23:57:55.998Z,10.78
